Acmar, AL

7:39 AM CST on November 23, 2014 (GMT -0600)
Birmingham International | Change Station
CLOSE
Current Station
Airport
Location: Birmingham,
Elevation: 630 ft
Nearby Weather Stations

Elev 630 ft 33.57 °N, 86.74 °W | Updated 15 minutes ago

Overcast
Overcast
56 °F
Feels Like 56 °F
N
9
Wind Variable Wind from East
Gusts 20 mph

Today
High -- | Low -- °F
--% Chance of Precip.
Yesterday
High -- | Low -- °F
Precip. -- in
6:25 AM 4:39 PM
New Moon, 1% visible
Pressure 29.89 in
Visibility 2.0 miles
Clouds Mostly Cloudy 800 ft
Mostly Cloudy 1500 ft
Overcast 1900 ft
Dew Point 54 °F
Humidity 93%
Rainfall 0.05 in
Snow Depth Not available.
UV 0 out of 12
Pollen .30 out of 12
Air Quality Not available.
Flu Activity Not available.
SPECI KBHM 231324Z 10008G17KT 2SM -DZ BR BKN008 BKN015 OVC019 13/12 A2989 RMK AO2 DZB20 P0000 T01330122

More Conditions Fewer Conditions

Pressure 29.89 in
Visibility 2.0 miles
Clouds Mostly Cloudy 800 ft
Mostly Cloudy 1500 ft
Overcast 1900 ft
Dew Point 54 °F
Humidity 93%
Rainfall 0.05 in
Snow Depth Not available.
UV 0 out of 12
Pollen .30 out of 12
Air Quality Not available.
Flu Activity Not available.
SPECI KBHM 231324Z 10008G17KT 2SM -DZ BR BKN008 BKN015 OVC019 13/12 A2989 RMK AO2 DZB20 P0000 T01330122

More Conditions Fewer Conditions

10-Day Weather Forecast

Almanac

Astronomy

Nov. 23, 2014 Rise Set
Actual Time
Civil Twilight
Nautical Twilight
Astronomical Twilight
Moon
Length of Visible Light
Length of Day
Tomorrow will be .
, % of the Moon is Illuminated

Today's Extremes

State Highs State Lows

Community

WunderPhotos

Upload Photos

1,773,057 photos uploaded!

WunderBlogs® & News

Nearby

Air Quality

  Air Quality AQ Index Pollutant
Not available.

Snow Depth

Station Depth Elevation

Earthquake Activity

City Distance Mag. Time & Date
Minimum magnitude displayed is 2.5.

Coastal Water Temperatures

Place Temperature

Nearby Weather Stations